createdAt,value
2022-11-16T00:01:45.845Z,6.20
2022-11-16T00:04:16.300Z,7.50
2022-11-16T00:06:46.910Z,6.60
2022-11-16T00:09:23.595Z,8.00
2022-11-16T00:11:55.787Z,7.10
2022-11-16T00:14:28.563Z,6.10
2022-11-16T00:16:59.705Z,7.30
2022-11-16T00:19:30.674Z,8.70
2022-11-16T00:22:01.659Z,5.60
2022-11-16T00:24:32.070Z,5.60
2022-11-16T00:27:03.040Z,4.30
2022-11-16T00:29:33.521Z,6.70
2022-11-16T00:32:04.613Z,6.70
2022-11-16T00:34:35.468Z,5.30
2022-11-16T00:37:05.807Z,8.10
2022-11-16T00:39:36.395Z,4.90
2022-11-16T00:42:06.821Z,7.40
2022-11-16T00:44:37.911Z,6.10
2022-11-16T00:47:08.843Z,7.00
2022-11-16T00:49:39.474Z,6.20
2022-11-16T00:52:10.007Z,8.90
2022-11-16T00:54:40.486Z,7.50
2022-11-16T00:57:10.932Z,5.30
2022-11-16T00:59:41.356Z,5.70
2022-11-16T01:02:11.753Z,11.10
2022-11-16T01:04:42.524Z,11.40
2022-11-16T01:07:12.922Z,7.70
2022-11-16T01:09:43.804Z,5.60
2022-11-16T01:12:14.416Z,7.30
2022-11-16T01:14:47.790Z,6.20
2022-11-16T01:17:18.180Z,6.10
2022-11-16T01:19:48.710Z,5.40
2022-11-16T01:22:19.122Z,7.00
2022-11-16T01:24:50.063Z,5.70
2022-11-16T01:27:20.624Z,6.60
2022-11-16T01:29:51.425Z,7.50
2022-11-16T01:32:22.013Z,5.90
2022-11-16T01:34:52.587Z,7.00
2022-11-16T01:37:23.395Z,7.80
2022-11-16T01:39:53.989Z,7.70
2022-11-16T01:42:26.218Z,11.30
2022-11-16T01:45:03.516Z,10.90
2022-11-16T01:47:34.425Z,8.40
2022-11-16T01:50:12.083Z,9.20
2022-11-16T01:52:48.916Z,10.60
2022-11-16T01:55:19.658Z,11.40
2022-11-16T01:57:50.993Z,11.70
2022-11-16T02:00:22.011Z,10.80
2022-11-16T02:02:52.709Z,11.80
2022-11-16T02:05:30.972Z,11.10
2022-11-16T02:08:38.468Z,11.20
2022-11-16T02:14:00.923Z,12.20
2022-11-16T02:16:40.283Z,13.40
2022-11-16T02:19:40.720Z,11.20
2022-11-16T02:22:24.020Z,12.80
2022-11-16T02:25:03.872Z,11.90
2022-11-16T02:27:53.777Z,14.90
2022-11-16T02:30:24.922Z,11.20
2022-11-16T02:33:02.480Z,11.10
2022-11-16T02:35:37.628Z,13.00
2022-11-16T02:38:12.163Z,13.50
2022-11-16T02:40:48.745Z,12.70
2022-11-16T02:43:36.138Z,12.70
2022-11-16T02:46:10.080Z,10.90
2022-11-16T02:48:45.381Z,10.90
2022-11-16T02:51:17.044Z,16.70
2022-11-16T02:54:00.585Z,14.70
2022-11-16T02:56:31.334Z,17.40
2022-11-16T02:59:02.145Z,13.90
2022-11-16T03:01:38.123Z,13.80
2022-11-16T03:04:15.388Z,13.00
2022-11-16T03:06:47.978Z,18.30
2022-11-16T03:09:23.154Z,16.20
2022-11-16T03:12:00.931Z,14.70
2022-11-16T03:14:37.816Z,14.70
2022-11-16T03:17:14.158Z,14.40
2022-11-16T03:19:50.337Z,14.40
2022-11-16T03:22:25.776Z,13.90
2022-11-16T03:24:56.840Z,14.20
2022-11-16T03:27:36.324Z,12.80
2022-11-16T03:30:09.973Z,15.00
2022-11-16T03:32:46.735Z,14.80
2022-11-16T03:35:22.505Z,13.60
2022-11-16T03:37:57.313Z,14.60
2022-11-16T03:40:31.748Z,14.40
2022-11-16T03:43:04.114Z,12.20
2022-11-16T03:45:35.453Z,13.40
2022-11-16T03:48:07.259Z,13.50
2022-11-16T03:50:38.055Z,14.00
2022-11-16T03:53:08.861Z,11.80
2022-11-16T03:55:39.808Z,15.90
2022-11-16T03:58:10.447Z,15.90
2022-11-16T04:00:41.202Z,14.10
2022-11-16T04:03:12.116Z,15.20
2022-11-16T04:06:00.456Z,15.00
2022-11-16T04:08:48.446Z,11.60
2022-11-16T04:11:40.491Z,9.70
2022-11-16T04:14:33.675Z,8.50
2022-11-16T04:17:21.964Z,12.10
2022-11-16T04:20:10.121Z,10.40
2022-11-16T04:23:10.143Z,13.30
2022-11-16T04:25:45.044Z,12.60
2022-11-16T04:28:17.197Z,12.10
2022-11-16T04:31:08.323Z,12.00
2022-11-16T04:33:56.811Z,17.00
2022-11-16T04:36:45.171Z,13.50
2022-11-16T04:39:16.047Z,13.30
2022-11-16T04:42:03.820Z,10.80
2022-11-16T04:47:19.579Z,9.00
2022-11-16T04:49:49.938Z,12.10
2022-11-16T04:52:20.292Z,12.70
2022-11-16T04:54:50.657Z,12.60
2022-11-16T04:57:21.011Z,12.80
2022-11-16T04:59:51.311Z,13.20
2022-11-16T05:02:22.428Z,11.60
2022-11-16T05:04:52.823Z,12.60
2022-11-16T05:07:23.939Z,12.60
2022-11-16T05:09:54.724Z,12.80
2022-11-16T05:12:26.757Z,15.30
2022-11-16T05:14:58.384Z,13.80
2022-11-16T05:17:29.761Z,12.10
2022-11-16T05:20:17.928Z,14.50
2022-11-16T05:22:55.158Z,13.00
2022-11-16T05:25:25.754Z,15.40
2022-11-16T05:27:56.536Z,10.50
2022-11-16T05:30:28.678Z,13.10
2022-11-16T05:32:59.398Z,14.50
2022-11-16T05:35:30.058Z,16.00
2022-11-16T05:38:01.002Z,11.60
2022-11-16T05:40:32.880Z,16.80
2022-11-16T05:43:03.525Z,14.10
2022-11-16T05:45:34.277Z,14.80
2022-11-16T05:48:04.825Z,15.50
2022-11-16T05:50:41.311Z,24.10
2022-11-16T05:53:13.121Z,10.90
2022-11-16T05:55:43.648Z,11.40
2022-11-16T05:58:14.464Z,16.40
2022-11-16T06:00:46.842Z,12.10
2022-11-16T06:03:17.622Z,14.90
2022-11-16T06:05:48.192Z,16.90
2022-11-16T06:08:18.608Z,13.60
2022-11-16T06:10:49.353Z,17.40
2022-11-16T06:13:20.078Z,18.30
2022-11-16T06:15:50.518Z,13.70
2022-11-16T06:18:21.415Z,11.80
2022-11-16T06:20:52.011Z,14.90
2022-11-16T06:23:23.013Z,12.20
2022-11-16T06:25:57.120Z,13.10
2022-11-16T06:28:28.768Z,16.00
2022-11-16T06:30:59.226Z,11.20
2022-11-16T06:33:33.526Z,17.80
2022-11-16T06:36:05.604Z,13.10
2022-11-16T06:38:36.298Z,12.00
2022-11-16T06:41:07.160Z,12.50
2022-11-16T06:43:37.515Z,14.10
2022-11-16T06:46:08.164Z,15.60
2022-11-16T06:48:38.575Z,14.20
2022-11-16T06:51:09.901Z,14.20
2022-11-16T06:53:40.541Z,16.70
2022-11-16T06:56:14.507Z,12.00
2022-11-16T06:58:44.966Z,14.50
2022-11-16T07:01:15.780Z,18.00
2022-11-16T07:03:46.366Z,17.10
2022-11-16T07:06:17.167Z,15.70
2022-11-16T07:08:47.630Z,11.90
2022-11-16T07:11:18.466Z,13.30
2022-11-16T07:13:49.460Z,13.70
2022-11-16T07:16:19.876Z,14.70
2022-11-16T07:18:50.662Z,16.10
2022-11-16T07:21:21.709Z,16.00
2022-11-16T07:23:52.496Z,15.50
2022-11-16T07:26:22.853Z,12.20
2022-11-16T07:28:53.332Z,15.50
2022-11-16T07:31:24.132Z,16.80
2022-11-16T07:33:55.550Z,16.00
2022-11-16T07:36:25.958Z,14.70
2022-11-16T07:38:57.007Z,21.10
2022-11-16T07:41:27.518Z,16.00
2022-11-16T07:43:58.011Z,17.90
2022-11-16T07:46:45.885Z,15.30
2022-11-16T07:49:20.058Z,16.10
2022-11-16T07:51:50.979Z,17.40
2022-11-16T07:54:21.523Z,15.40
2022-11-16T07:56:54.718Z,14.70
2022-11-16T07:59:25.725Z,13.40
2022-11-16T08:01:56.636Z,18.30
2022-11-16T08:04:27.403Z,15.80
2022-11-16T08:06:58.167Z,14.80
2022-11-16T08:09:28.629Z,15.70
2022-11-16T08:11:59.050Z,14.70
2022-11-16T08:14:29.441Z,17.90
2022-11-16T08:17:00.360Z,15.80
2022-11-16T08:19:31.355Z,16.30
2022-11-16T08:22:01.794Z,14.60
2022-11-16T08:24:32.185Z,17.20
2022-11-16T08:27:02.574Z,19.10
2022-11-16T08:29:33.461Z,14.40
2022-11-16T08:32:04.073Z,17.10
2022-11-16T08:34:35.863Z,20.00
2022-11-16T08:37:06.644Z,16.70
2022-11-16T08:39:37.077Z,16.40
2022-11-16T08:42:07.666Z,17.40
2022-11-16T08:44:38.421Z,18.70
2022-11-16T08:47:08.970Z,14.50
2022-11-16T08:49:41.985Z,12.90
2022-11-16T08:52:15.956Z,18.90
2022-11-16T08:54:47.176Z,18.40
2022-11-16T08:57:18.225Z,17.20
2022-11-16T08:59:49.485Z,16.50
2022-11-16T09:02:25.439Z,16.10
2022-11-16T09:04:56.127Z,17.40
2022-11-16T09:07:26.666Z,18.50
2022-11-16T09:09:57.471Z,14.70
2022-11-16T09:12:28.205Z,17.00
2022-11-16T09:14:58.910Z,15.90
2022-11-16T09:17:29.346Z,15.80
2022-11-16T09:19:59.922Z,14.80
2022-11-16T09:22:30.358Z,15.50
2022-11-16T09:25:00.773Z,17.00
2022-11-16T09:27:31.263Z,15.50
2022-11-16T09:30:02.267Z,16.10
2022-11-16T09:32:32.659Z,12.70
2022-11-16T09:35:03.062Z,11.20
2022-11-16T09:37:33.785Z,12.60
2022-11-16T09:40:04.523Z,13.30
2022-11-16T09:42:53.601Z,11.40
2022-11-16T09:45:32.273Z,13.90
2022-11-16T09:48:07.350Z,17.10
2022-11-16T09:50:47.078Z,11.30
2022-11-16T09:53:33.438Z,12.80
2022-11-16T09:56:08.165Z,13.50
2022-11-16T09:58:44.985Z,12.80
2022-11-16T10:01:24.766Z,15.60
2022-11-16T10:04:01.388Z,14.70
2022-11-16T10:06:42.966Z,11.90
2022-11-16T10:09:14.866Z,14.50
2022-11-16T10:12:12.041Z,13.00
2022-11-16T10:15:12.922Z,11.20
2022-11-16T10:18:00.189Z,11.90
2022-11-16T10:20:50.048Z,13.10
2022-11-16T10:23:34.114Z,13.40
2022-11-16T10:26:16.795Z,17.40
2022-11-16T10:29:00.637Z,12.70
2022-11-16T10:31:41.488Z,14.10
2022-11-16T10:34:20.652Z,13.70
2022-11-16T10:36:51.014Z,16.30
2022-11-16T10:39:23.275Z,15.80
2022-11-16T10:41:54.169Z,13.10
2022-11-16T10:44:34.149Z,12.40
2022-11-16T10:47:07.115Z,14.00
2022-11-16T10:49:42.980Z,16.50
2022-11-16T10:52:13.414Z,15.60
2022-11-16T10:54:44.522Z,13.40
2022-11-16T10:57:15.306Z,16.60
2022-11-16T10:59:47.410Z,12.30
2022-11-16T11:02:35.729Z,16.00
2022-11-16T11:05:17.360Z,14.60
2022-11-16T11:07:54.156Z,13.50
2022-11-16T11:10:32.830Z,20.10
2022-11-16T11:13:18.982Z,11.00
2022-11-16T11:15:51.335Z,13.70
2022-11-16T11:18:29.953Z,12.70
2022-11-16T11:21:19.113Z,18.50
2022-11-16T11:23:51.550Z,14.70
2022-11-16T11:26:37.128Z,16.40
2022-11-16T11:29:21.732Z,13.50
2022-11-16T11:31:54.194Z,12.80
2022-11-16T11:34:27.826Z,12.40
2022-11-16T11:37:02.730Z,12.60
2022-11-16T11:39:35.522Z,14.00
2022-11-16T11:42:23.979Z,13.50
2022-11-16T11:44:58.700Z,15.80
2022-11-16T11:47:57.490Z,14.90
2022-11-16T11:50:38.088Z,13.10
2022-11-16T11:53:16.839Z,13.50
2022-11-16T11:55:47.286Z,14.50
2022-11-16T11:58:21.939Z,12.70
2022-11-16T12:01:07.812Z,12.40
2022-11-16T12:04:13.191Z,10.90
2022-11-16T12:06:49.621Z,12.20
2022-11-16T12:09:36.789Z,12.20
2022-11-16T12:12:24.711Z,14.50
2022-11-16T12:15:27.415Z,10.60
2022-11-16T12:18:08.999Z,13.10
2022-11-16T12:20:50.256Z,12.80
2022-11-16T12:23:45.192Z,16.00
2022-11-16T12:26:29.309Z,12.00
2022-11-16T12:29:13.900Z,13.60
2022-11-16T12:32:02.159Z,16.20
2022-11-16T12:34:46.282Z,13.80
2022-11-16T12:37:22.370Z,13.40
2022-11-16T12:40:18.312Z,13.00
2022-11-16T12:42:59.682Z,10.90
2022-11-16T12:45:45.889Z,14.20
2022-11-16T12:48:38.945Z,11.70
2022-11-16T12:51:19.537Z,13.20
2022-11-16T12:54:09.821Z,17.30
2022-11-16T12:56:49.759Z,15.70
2022-11-16T12:59:45.814Z,15.70
2022-11-16T13:02:27.680Z,13.50
2022-11-16T13:05:04.007Z,14.20
2022-11-16T13:07:42.134Z,20.10
2022-11-16T13:10:19.557Z,15.00
2022-11-16T13:13:09.099Z,11.70
2022-11-16T13:15:47.792Z,15.40
2022-11-16T13:18:22.544Z,13.90
2022-11-16T13:20:59.865Z,14.90
2022-11-16T13:23:42.079Z,14.50
2022-11-16T13:26:20.409Z,18.40
2022-11-16T13:28:58.030Z,10.30
2022-11-16T13:31:34.870Z,11.40
2022-11-16T13:34:14.540Z,13.80
2022-11-16T13:36:47.740Z,14.60
2022-11-16T13:39:22.957Z,15.80
2022-11-16T13:42:08.693Z,13.20
2022-11-16T13:44:39.792Z,14.50
2022-11-16T13:47:24.728Z,11.70
2022-11-16T13:49:59.554Z,13.00
2022-11-16T13:55:39.629Z,12.10
2022-11-16T13:58:13.971Z,12.40
2022-11-16T14:00:55.342Z,11.80
2022-11-16T14:03:38.617Z,12.80
2022-11-16T14:06:46.585Z,13.80
2022-11-16T14:09:47.428Z,10.20
2022-11-16T14:12:52.756Z,11.90
2022-11-16T14:15:25.491Z,11.80
2022-11-16T14:17:59.982Z,12.80
2022-11-16T14:20:50.339Z,11.20
2022-11-16T14:23:36.057Z,12.50
2022-11-16T14:26:19.773Z,10.10
2022-11-16T14:29:08.360Z,16.40
2022-11-16T14:31:53.271Z,13.70
2022-11-16T14:34:29.156Z,10.40
2022-11-16T14:37:00.604Z,12.20
2022-11-16T14:39:34.217Z,10.60
2022-11-16T14:42:08.020Z,11.20
2022-11-16T14:44:41.426Z,12.80
2022-11-16T14:47:23.903Z,14.80
2022-11-16T14:49:55.200Z,13.10
2022-11-16T14:52:36.256Z,13.40
2022-11-16T14:55:09.551Z,18.00
2022-11-16T14:57:39.972Z,14.90
2022-11-16T15:00:18.997Z,14.10
2022-11-16T15:02:54.380Z,13.40
2022-11-16T15:05:33.778Z,10.30
2022-11-16T15:08:09.061Z,16.10
2022-11-16T15:10:48.152Z,15.90
2022-11-16T15:13:25.133Z,14.50
2022-11-16T15:16:16.728Z,20.70
2022-11-16T15:19:00.496Z,14.70
2022-11-16T15:21:31.429Z,13.00
2022-11-16T15:24:28.701Z,18.00
2022-11-16T15:26:52.889Z,18.20
2022-11-16T15:29:25.431Z,12.50
2022-11-16T15:31:55.818Z,13.00
2022-11-16T15:34:26.672Z,13.10
2022-11-16T15:36:57.064Z,18.20
2022-11-16T15:39:33.828Z,22.40
2022-11-16T15:42:05.268Z,12.30
2022-11-16T15:44:36.280Z,11.50
2022-11-16T15:47:06.812Z,17.30
2022-11-16T15:49:39.506Z,11.90
2022-11-16T15:52:10.645Z,12.40
2022-11-16T15:54:58.717Z,18.30
2022-11-16T15:57:29.562Z,13.00
2022-11-16T16:00:00.533Z,15.10
2022-11-16T16:02:33.223Z,12.70
2022-11-16T16:05:03.989Z,10.60
2022-11-16T16:07:42.785Z,12.60
2022-11-16T16:10:25.731Z,9.90
2022-11-16T16:12:57.571Z,10.50
2022-11-16T16:15:30.841Z,9.00
2022-11-16T16:18:02.076Z,10.20
2022-11-16T16:20:34.837Z,12.10
2022-11-16T16:23:15.802Z,10.50
2022-11-16T16:25:50.478Z,10.30
2022-11-16T16:28:21.550Z,8.30
2022-11-16T16:30:54.872Z,9.40
2022-11-16T16:33:28.614Z,12.60
2022-11-16T16:35:59.098Z,11.80
2022-11-16T16:38:30.421Z,8.50
2022-11-16T16:41:03.652Z,7.80
2022-11-16T16:43:34.907Z,9.50
2022-11-16T16:46:06.733Z,9.30
2022-11-16T16:48:43.298Z,10.20
2022-11-16T16:53:45.270Z,7.40
2022-11-16T16:56:19.649Z,10.00
2022-11-16T16:58:50.445Z,9.00
2022-11-16T17:01:21.181Z,10.30
2022-11-16T17:03:51.647Z,8.90
2022-11-16T17:06:22.140Z,9.60
2022-11-16T17:08:53.205Z,7.20
2022-11-16T17:11:23.963Z,8.30
2022-11-16T17:13:54.729Z,8.00
2022-11-16T17:16:25.365Z,12.00
2022-11-16T17:18:57.916Z,8.80
2022-11-16T17:21:28.473Z,7.20
2022-11-16T17:23:59.096Z,9.30
2022-11-16T17:26:30.204Z,9.30
2022-11-16T17:29:01.076Z,9.60
2022-11-16T17:31:31.440Z,9.80
2022-11-16T17:34:02.235Z,9.40
2022-11-16T17:36:33.636Z,9.10
2022-11-16T17:39:04.778Z,14.20
2022-11-16T17:41:35.775Z,8.60
2022-11-16T17:44:07.320Z,9.70
2022-11-16T17:46:37.946Z,10.90
2022-11-16T17:49:09.311Z,14.20
2022-11-16T17:51:39.822Z,14.20
2022-11-16T17:54:10.389Z,10.80
2022-11-16T17:56:41.409Z,17.80
2022-11-16T17:59:11.990Z,17.50
2022-11-16T18:01:42.507Z,14.20
2022-11-16T18:04:13.393Z,13.20
2022-11-16T18:06:44.103Z,10.30
2022-11-16T18:09:14.819Z,9.70
2022-11-16T18:11:45.592Z,12.60
2022-11-16T18:14:16.236Z,10.20
2022-11-16T18:16:48.084Z,14.60
2022-11-16T18:19:20.147Z,8.10
2022-11-16T18:21:50.634Z,11.00
2022-11-16T18:24:21.210Z,9.40
2022-11-16T18:26:52.237Z,8.40
2022-11-16T18:29:22.634Z,10.70
2022-11-16T18:31:53.731Z,9.90
2022-11-16T18:34:24.267Z,10.80
2022-11-16T18:36:56.208Z,12.00
2022-11-16T18:39:26.788Z,9.40
2022-11-16T18:41:57.655Z,10.10
2022-11-16T18:44:28.525Z,12.40
2022-11-16T18:46:58.856Z,8.00
2022-11-16T18:49:29.334Z,9.30
2022-11-16T18:52:00.062Z,11.60
2022-11-16T18:54:30.750Z,8.90
2022-11-16T18:57:01.258Z,7.30
2022-11-16T18:59:31.662Z,7.00
2022-11-16T19:02:02.038Z,12.70
2022-11-16T19:04:32.456Z,14.20
2022-11-16T19:07:03.716Z,9.30
2022-11-16T19:09:34.545Z,6.20
2022-11-16T19:12:05.415Z,8.70
2022-11-16T19:14:35.868Z,6.20
2022-11-16T19:17:06.217Z,4.50
2022-11-16T19:19:36.661Z,5.80
2022-11-16T19:22:07.366Z,3.50
2022-11-16T19:24:37.722Z,5.60
2022-11-16T19:27:08.455Z,6.50
2022-11-16T19:29:38.883Z,5.10
2022-11-16T19:32:09.690Z,3.60
2022-11-16T19:34:40.158Z,7.00
2022-11-16T19:37:11.703Z,6.60
2022-11-16T19:39:42.994Z,12.60
2022-11-16T19:42:13.383Z,9.50
2022-11-16T19:44:43.796Z,5.20
2022-11-16T19:47:14.283Z,6.50
2022-11-16T19:49:46.160Z,6.70
2022-11-16T19:52:16.510Z,4.20
2022-11-16T19:54:47.194Z,7.00
2022-11-16T19:57:20.480Z,4.70
2022-11-16T19:59:51.212Z,4.90
2022-11-16T20:02:21.628Z,4.60
2022-11-16T20:04:53.360Z,4.00
2022-11-16T20:07:23.865Z,9.70
2022-11-16T20:09:55.123Z,6.40
2022-11-16T20:12:25.581Z,7.40
2022-11-16T20:14:56.797Z,4.30
2022-11-16T20:17:27.256Z,4.10
2022-11-16T20:19:57.826Z,5.70
2022-11-16T20:22:28.613Z,4.40
2022-11-16T20:24:59.562Z,3.00
2022-11-16T20:27:30.364Z,4.20
2022-11-16T20:30:06.461Z,3.80
2022-11-16T20:32:40.277Z,3.80
2022-11-16T20:35:16.177Z,6.90
2022-11-16T20:37:49.998Z,3.10
2022-11-16T20:40:24.409Z,4.00
2022-11-16T20:42:59.093Z,3.70
2022-11-16T20:45:32.797Z,4.60
2022-11-16T20:48:04.267Z,5.90
2022-11-16T20:50:35.339Z,4.40
2022-11-16T20:53:06.534Z,3.10
2022-11-16T20:55:37.833Z,3.60
2022-11-16T20:58:08.557Z,3.30
2022-11-16T21:00:44.891Z,3.50
2022-11-16T21:03:18.487Z,3.00
2022-11-16T21:05:53.467Z,3.80
2022-11-16T21:08:30.535Z,6.80
2022-11-16T21:11:02.325Z,7.80
2022-11-16T21:13:52.948Z,6.70
2022-11-16T21:16:24.580Z,3.00
2022-11-16T21:18:57.160Z,4.60
2022-11-16T21:21:31.615Z,5.70
2022-11-16T21:24:03.514Z,4.10
2022-11-16T21:26:37.648Z,4.20
2022-11-16T21:29:09.768Z,4.30
2022-11-16T21:31:46.411Z,6.70
2022-11-16T21:34:20.399Z,3.40
2022-11-16T21:36:54.130Z,4.10
2022-11-16T21:39:27.447Z,5.20
2022-11-16T21:41:59.882Z,5.40
2022-11-16T21:44:42.132Z,3.40
2022-11-16T21:47:14.254Z,3.00
2022-11-16T21:50:08.604Z,8.40
2022-11-16T21:52:38.215Z,3.00
2022-11-16T21:55:11.253Z,3.20
2022-11-16T21:57:42.473Z,3.10
2022-11-16T22:00:16.133Z,4.50
2022-11-16T22:02:48.409Z,3.30
2022-11-16T22:05:38.033Z,4.20
2022-11-16T22:08:13.058Z,3.60
2022-11-16T22:10:44.602Z,2.50
2022-11-16T22:13:15.305Z,3.70
2022-11-16T22:15:46.351Z,3.10
2022-11-16T22:18:16.743Z,3.40
2022-11-16T22:20:50.329Z,3.60
2022-11-16T22:23:24.429Z,2.50
2022-11-16T22:25:55.083Z,3.60
2022-11-16T22:28:25.837Z,5.40
2022-11-16T22:31:03.379Z,4.30
2022-11-16T22:33:35.397Z,2.30
2022-11-16T22:36:08.290Z,3.30
2022-11-16T22:38:38.914Z,4.10
2022-11-16T22:41:09.947Z,2.70
2022-11-16T22:43:40.778Z,2.90
2022-11-16T22:46:12.031Z,3.60
2022-11-16T22:48:43.704Z,2.40
2022-11-16T22:51:21.218Z,3.90
2022-11-16T22:53:55.227Z,4.10
2022-11-16T22:56:26.364Z,2.90
2022-11-16T22:58:57.695Z,2.80
2022-11-16T23:01:28.429Z,4.10
2022-11-16T23:03:59.693Z,2.80
2022-11-16T23:06:30.681Z,2.70
2022-11-16T23:09:01.657Z,5.10
2022-11-16T23:11:49.907Z,2.70
2022-11-16T23:14:38.137Z,3.10
2022-11-16T23:17:08.624Z,7.80
2022-11-16T23:19:57.341Z,3.60
2022-11-16T23:22:45.462Z,3.80
2022-11-16T23:25:33.657Z,3.70
2022-11-16T23:28:07.887Z,4.50
2022-11-16T23:30:39.791Z,3.00
2022-11-16T23:33:10.730Z,2.90
2022-11-16T23:35:41.126Z,2.80
2022-11-16T23:38:11.927Z,3.20
2022-11-16T23:40:42.864Z,4.40
2022-11-16T23:43:31.122Z,3.00
2022-11-16T23:46:02.017Z,2.50
2022-11-16T23:48:33.390Z,3.90
2022-11-16T23:51:03.883Z,3.20
2022-11-16T23:53:34.904Z,2.90
2022-11-16T23:56:06.413Z,3.30
2022-11-16T23:58:37.538Z,4.60
